Terminal Aerodrome Forecast
Issued by NWS Topeka, KS

Home | Current Version | Previous Version | Text Only | Print | Product List | Glossary Off
Versions: 1 2 3 4 5 6 7 8 9 10 11 12 13 14 15 16

419
FTUS43 KTOP 071739
TAFTOP
TAF
KTOP 071739Z 0718/0818 30015G22KT P6SM BKN120
     FM072000 30019G32KT P6SM SCT120
     FM080000 31015G23KT P6SM BKN060
     FM080600 32018G26KT P6SM SCT020 BKN035
     FM081500 32022G33KT P6SM SCT030=

USA.gov is the U.S. government's official web portal to all federal, state and local government web resources and services.